createdAt,value
2017-05-18T00:03:30.345Z,93.53
2017-05-18T00:23:30.648Z,91.85
2017-05-18T00:43:31.171Z,91.80
2017-05-18T01:03:31.467Z,90.28
2017-05-18T01:23:32.072Z,87.11
2017-05-18T01:43:32.419Z,73.12
2017-05-18T02:03:32.856Z,26.24
2017-05-18T02:23:33.296Z,42.63
2017-05-18T02:43:33.754Z,96.08
2017-05-18T03:07:50.876Z,65.27
2017-05-18T03:27:50.383Z,81.64
2017-05-18T03:47:50.716Z,32.05
2017-05-18T04:07:51.202Z,68.87
2017-05-18T04:27:51.627Z,61.00
2017-05-18T04:47:52.105Z,21.66
2017-05-18T05:07:52.543Z,49.72
2017-05-18T05:27:53.030Z,35.34
2017-05-18T05:47:53.579Z,5.31
2017-05-18T06:07:53.966Z,68.82
2017-05-18T06:27:54.460Z,99.53
2017-05-18T06:47:54.850Z,99.98
2017-05-18T07:07:55.426Z,91.31
2017-05-18T07:27:55.736Z,95.30
2017-05-18T07:47:56.219Z,100.00
2017-05-18T08:07:56.711Z,100.00
2017-05-18T08:27:57.114Z,100.00
2017-05-18T08:47:57.620Z,100.00
2017-05-18T09:07:58.169Z,100.00
2017-05-18T09:27:58.707Z,100.00
2017-05-18T09:47:59.234Z,100.00
2017-05-18T10:07:59.800Z,100.00
2017-05-18T10:43:00.572Z,100.00
2017-05-18T11:03:01.161Z,100.00
2017-05-18T11:23:01.640Z,100.00
2017-05-18T11:43:02.235Z,100.00
2017-05-18T12:03:02.799Z,100.00
2017-05-18T12:23:03.328Z,100.00
2017-05-18T12:43:03.880Z,100.00
2017-05-18T13:03:04.275Z,100.00
2017-05-18T13:23:04.885Z,100.00
2017-05-18T13:43:05.354Z,100.00
2017-05-18T14:03:05.715Z,100.00
2017-05-18T14:23:06.183Z,100.00
2017-05-18T14:43:06.628Z,100.00
2017-05-18T15:03:07.129Z,100.00
2017-05-18T15:23:07.673Z,100.00
2017-05-18T15:43:08.119Z,100.00
2017-05-18T16:03:08.630Z,100.00
2017-05-18T16:23:09.180Z,100.00
2017-05-18T16:43:09.733Z,100.00
2017-05-18T17:03:10.098Z,100.00
2017-05-18T17:28:10.725Z,100.00
2017-05-18T17:48:11.239Z,90.17
2017-05-18T18:08:11.791Z,28.47
2017-05-18T18:28:12.216Z,21.52
2017-05-18T18:48:12.778Z,2.30
2017-05-18T19:08:13.276Z,0.24
2017-05-18T19:28:13.808Z,89.39
2017-05-18T19:48:15.350Z,99.99
2017-05-18T20:08:59.291Z,56.43
2017-05-18T20:28:59.769Z,98.17
2017-05-18T20:49:00.174Z,74.24
2017-05-18T21:09:00.676Z,81.27
2017-05-18T21:29:01.195Z,45.65
2017-05-18T21:49:01.668Z,74.91
2017-05-18T22:09:02.087Z,79.55
2017-05-18T22:29:02.551Z,62.28
2017-05-18T22:49:02.964Z,66.02
2017-05-18T23:09:03.309Z,87.28
2017-05-18T23:29:03.820Z,82.23
2017-05-18T23:49:04.229Z,79.06
